Time;durP1;ratioP1;P1;durP2;ratioP2;P2;SDS_P1;SDS_P2;PMS_P1;PMS_P2;Temp;Humidity;BMP_temperature;BMP_pressure;BME280_temperature;BME280_humidity;BME280_pressure;Samples;Min_cycle;Max_cycle;Signal;HPM_P1;HPM_P2
2021/04/28 00:02:50;;;;;;;5.57;2.58;;;;;;;8.71;45.76;100616.44;10339564;28;20037;-79
2021/04/28 00:08:07;;;;;;;4.68;2.40;;;;;;;8.70;46.34;100625.66;10333015;28;20033;-79
2021/04/28 00:13:13;;;;;;;5.70;2.53;;;;;;;8.61;46.51;100606.22;10377917;28;20683;-78
2021/04/28 00:18:15;;;;;;;7.88;2.90;;;;;;;8.51;46.75;100591.34;10376633;28;20045;-79
2021/04/28 00:23:15;;;;;;;5.07;3.15;;;;;;;8.41;46.71;100592.69;10380082;28;20684;-79
2021/04/28 00:28:16;;;;;;;5.55;2.88;;;;;;;8.39;47.21;100597.59;10388262;28;20037;-79
2021/04/28 00:33:16;;;;;;;5.05;2.88;;;;;;;8.41;47.36;100608.84;10377649;28;20041;-79
2021/04/28 00:38:17;;;;;;;5.07;3.10;;;;;;;8.31;47.23;100595.91;10411964;28;20049;-78
2021/04/28 00:43:17;;;;;;;14.80;3.70;;;;;;;7.91;47.88;100532.25;10418925;28;20733;-79
2021/04/28 00:48:18;;;;;;;6.95;3.00;;;;;;;8.14;47.88;100566.66;10409981;28;20115;-78
2021/04/28 00:53:22;;;;;;;9.43;3.25;;;;;;;8.22;47.98;100589.91;10422485;28;20049;-79
2021/04/28 00:58:24;;;;;;;5.50;3.22;;;;;;;8.03;48.12;100561.78;10412711;28;20044;-79
2021/04/28 01:03:27;;;;;;;8.17;3.30;;;;;;;7.77;48.63;100531.91;10421003;28;20028;-79
2021/04/28 01:08:29;;;;;;;5.78;3.45;;;;;;;8.04;49.03;100574.13;10425288;28;20061;-79
2021/04/28 01:13:30;;;;;;;7.63;4.32;;;;;;;7.98;49.27;100570.13;10434199;28;20137;-79
2021/04/28 01:18:30;;;;;;;4.93;3.35;;;;;;;7.94;49.50;100563.84;10398263;28;20040;-79
2021/04/28 01:23:31;;;;;;;7.57;3.78;;;;;;;7.56;49.78;100516.81;10418601;28;20124;-79
2021/04/28 01:28:31;;;;;;;6.32;3.90;;;;;;;7.74;50.01;100554.94;10390086;28;20037;-79
2021/04/28 01:33:34;;;;;;;16.88;4.70;;;;;;;7.73;50.85;100552.56;10398106;28;20390;-79
2021/04/28 01:38:41;;;;;;;6.53;3.78;;;;;;;7.52;51.77;100548.19;10418974;28;20450;-79
2021/04/28 01:43:42;;;;;;;6.78;4.03;;;;;;;7.39;52.08;100549.41;10428760;28;20497;-79
2021/04/28 01:48:45;;;;;;;6.05;4.05;;;;;;;7.31;52.36;100543.03;10407043;28;20068;-79
2021/04/28 01:53:45;;;;;;;9.00;4.05;;;;;;;7.27;52.51;100536.81;10386912;28;20044;-79
2021/04/28 01:58:46;;;;;;;7.68;3.83;;;;;;;7.32;52.73;100549.22;10410848;28;20034;-79
2021/04/28 02:03:47;;;;;;;8.98;4.22;;;;;;;7.18;53.23;100545.03;10399958;28;20121;-79
2021/04/28 02:08:47;;;;;;;7.78;4.00;;;;;;;7.13;53.63;100550.66;10399977;28;20521;-80
2021/04/28 02:13:49;;;;;;;7.18;4.53;;;;;;;6.78;54.08;100510.91;10393388;28;20529;-79
2021/04/28 02:18:49;;;;;;;7.07;3.90;;;;;;;6.93;54.22;100530.13;10383339;28;20087;-79
2021/04/28 02:23:50;;;;;;;5.68;3.80;;;;;;;6.72;54.45;100512.25;10413583;28;20120;-79
2021/04/28 02:28:50;;;;;;;9.98;4.40;;;;;;;6.83;54.85;100536.75;10399501;28;20473;-79
2021/04/28 02:33:51;;;;;;;8.52;3.92;;;;;;;6.52;54.80;100497.13;10412433;28;20037;-78
2021/04/28 02:38:59;;;;;;;6.82;4.35;;;;;;;6.59;55.39;100513.44;10417626;28;20041;-79
2021/04/28 02:44:01;;;;;;;7.60;4.78;;;;;;;6.61;55.12;100519.25;10411949;28;20036;-79
2021/04/28 02:49:03;;;;;;;6.43;3.93;;;;;;;6.37;55.52;100471.75;10409110;28;20116;-78
2021/04/28 02:54:04;;;;;;;7.97;4.50;;;;;;;6.53;55.32;100498.66;10415912;28;20375;-79
2021/04/28 02:59:06;;;;;;;9.75;3.83;;;;;;;6.49;55.69;100497.78;10390952;28;20112;-78
2021/04/28 03:04:07;;;;;;;7.43;3.47;;;;;;;6.59;55.76;100512.66;10420860;28;20887;-79
2021/04/28 03:09:07;;;;;;;6.55;3.65;;;;;;;6.22;56.47;100467.88;10385382;28;20033;-78
2021/04/28 03:14:08;;;;;;;7.95;4.05;;;;;;;6.48;56.53;100506.97;10423740;28;20120;-78
2021/04/28 03:19:09;;;;;;;7.25;4.07;;;;;;;6.30;56.60;100475.03;10428005;28;20717;-78
2021/04/28 03:24:10;;;;;;;6.22;4.05;;;;;;;6.25;57.13;100477.91;10413147;28;20544;-79
2021/04/28 03:29:11;;;;;;;5.88;3.55;;;;;;;6.06;57.62;100437.47;10408768;28;20095;-79
2021/04/28 03:34:12;;;;;;;11.52;4.32;;;;;;;6.27;57.50;100470.31;10414712;28;20039;-78
2021/04/28 03:39:12;;;;;;;8.38;4.07;;;;;;;6.35;57.72;100477.47;10371142;28;20050;-79
2021/04/28 03:44:13;;;;;;;12.30;4.03;;;;;;;6.35;57.78;100488.22;10387656;28;20132;-79
2021/04/28 03:49:15;;;;;;;8.82;4.05;;;;;;;6.20;57.75;100480.84;10384311;28;20815;-79
2021/04/28 03:54:17;;;;;;;9.23;5.28;;;;;;;6.24;58.21;100481.72;10358732;28;20116;-79
2021/04/28 03:59:18;;;;;;;8.32;4.18;;;;;;;6.21;58.11;100482.41;10375350;28;20041;-79
2021/04/28 04:04:18;;;;;;;9.93;4.35;;;;;;;6.25;57.98;100483.28;10389679;28;20409;-79
2021/04/28 04:09:19;;;;;;;5.65;3.78;;;;;;;6.10;58.41;100470.56;10382095;28;20050;-79
2021/04/28 04:14:19;;;;;;;8.82;4.30;;;;;;;6.11;58.43;100498.97;10379846;28;20091;-78
2021/04/28 04:19:20;;;;;;;9.73;4.22;;;;;;;6.07;58.69;100500.78;10383720;28;20042;-79
2021/04/28 04:24:20;;;;;;;9.75;4.53;;;;;;;5.64;59.08;100437.69;10383042;28;20030;-78
2021/04/28 04:29:24;;;;;;;6.90;4.55;;;;;;;5.77;59.14;100468.78;10381356;28;20021;-84
2021/04/28 04:34:24;;;;;;;16.00;4.60;;;;;;;5.61;59.89;100438.38;10391462;28;20040;-80
2021/04/28 04:39:29;;;;;;;10.90;4.63;;;;;;;5.88;60.41;100494.03;10390517;28;20116;-78
2021/04/28 04:44:32;;;;;;;8.20;4.00;;;;;;;4.59;59.93;100310.31;10381711;28;20070;-79
2021/04/28 04:50:20;;;;;;;7.20;4.28;;;;;;;5.40;60.45;100428.53;10364878;28;20076;-76
2021/04/28 04:55:22;;;;;;;8.85;4.88;;;;;;;5.63;60.80;100446.88;10384301;28;20099;-78
2021/04/28 05:00:30;;;;;;;9.55;4.75;;;;;;;5.42;60.37;100415.56;10396298;28;20627;-79
2021/04/28 05:05:32;;;;;;;10.18;4.03;;;;;;;5.68;60.39;100454.69;10393561;28;20029;-79
2021/04/28 05:10:33;;;;;;;;;;;;;;;5.99;60.38;100496.28;10386768;28;20033;-79
2021/04/28 05:15:33;;;;;;;9.57;4.80;;;;;;;5.90;60.45;100483.75;10385397;28;19913;-78
2021/04/28 05:20:34;;;;;;;6.13;4.35;;;;;;;5.77;60.25;100458.03;10371621;28;20137;-79
2021/04/28 05:25:34;;;;;;;14.10;4.63;;;;;;;5.99;60.29;100480.19;10349124;28;20061;-79
2021/04/28 05:30:35;;;;;;;9.55;4.72;;;;;;;6.33;60.18;100498.50;10379552;28;20049;-82
2021/04/28 05:35:35;;;;;;;8.73;4.53;;;;;;;6.43;59.72;100483.03;10386184;28;20110;-82
2021/04/28 05:40:36;;;;;;;12.07;4.32;;;;;;;6.75;59.19;100500.84;10404082;28;20047;-82
2021/04/28 05:45:43;;;;;;;9.52;4.68;;;;;;;7.07;57.60;100500.94;10424375;28;20443;-82
2021/04/28 05:50:44;;;;;;;10.10;4.75;;;;;;;7.28;56.94;100494.56;10429061;28;20083;-83
2021/04/28 05:55:47;;;;;;;11.07;4.53;;;;;;;7.36;56.34;100496.31;10400727;28;20443;-81
2021/04/28 06:00:47;;;;;;;;;;;;;;;7.36;56.21;100501.69;10419553;28;20374;-82
2021/04/28 06:05:48;;;;;;;9.82;5.30;;;;;;;7.25;56.63;100469.16;10426598;28;19924;-80
2021/04/28 06:10:49;;;;;;;13.43;5.13;;;;;;;7.62;55.96;100499.28;10407402;28;20885;-83
2021/04/28 06:15:49;;;;;;;13.55;5.68;;;;;;;7.77;55.84;100499.63;10415796;28;20055;-83
2021/04/28 06:20:49;;;;;;;11.13;5.38;;;;;;;8.04;54.79;100498.75;10429529;28;20025;-79
2021/04/28 06:25:50;;;;;;;10.13;4.88;;;;;;;8.33;53.96;100483.22;10397975;28;20083;-83
2021/04/28 06:30:51;;;;;;;10.00;5.45;;;;;;;8.54;53.51;100472.13;10434200;28;20118;-84
2021/04/28 06:35:51;;;;;;;8.23;4.45;;;;;;;8.32;52.50;100411.63;10452393;28;20048;-84
2021/04/28 06:40:54;;;;;;;9.18;4.20;;;;;;;9.05;51.90;100479.25;10425850;28;20513;-85
2021/04/28 06:45:54;;;;;;;;;;;;;;;9.23;51.15;100483.06;10408097;28;20570;-84
2021/04/28 06:50:55;;;;;;;11.43;5.00;;;;;;;9.56;49.30;100476.31;10393165;28;19920;-83
2021/04/28 06:55:56;;;;;;;12.43;4.50;;;;;;;9.53;49.97;100425.75;10403509;28;20068;-84
2021/04/28 07:00:57;;;;;;;12.10;5.47;;;;;;;10.03;48.93;100475.09;10398399;28;20491;-84
2021/04/28 07:05:57;;;;;;;7.90;4.30;;;;;;;10.29;48.48;100468.16;10443598;28;20080;-83
2021/04/28 07:10:58;;;;;;;8.70;5.15;;;;;;;10.75;47.59;100484.16;10408205;28;20481;-85
2021/04/28 07:15:58;;;;;;;8.55;5.43;;;;;;;10.88;45.76;100469.22;10404180;28;20088;-86
2021/04/28 07:20:59;;;;;;;8.52;4.40;;;;;;;10.97;45.96;100393.22;10420557;28;20029;-85
2021/04/28 07:25:59;;;;;;;10.30;6.03;;;;;;;11.55;44.82;100438.56;10411695;28;20493;-85
2021/04/28 07:31:00;;;;;;;10.05;4.60;;;;;;;11.78;43.80;100430.22;10408927;28;20108;-85
2021/04/28 07:36:00;;;;;;;13.35;5.63;;;;;;;12.37;42.65;100459.19;10360410;28;20057;-83
2021/04/28 07:41:01;;;;;;;11.55;4.50;;;;;;;13.07;41.77;100436.16;10398103;28;20045;-84
2021/04/28 07:46:02;;;;;;;9.73;4.40;;;;;;;14.64;39.36;100415.34;10421803;28;20053;-85
2021/04/28 07:51:02;;;;;;;6.90;4.53;;;;;;;16.47;34.22;100395.38;10394247;28;20123;-85
2021/04/28 07:56:03;;;;;;;8.70;5.00;;;;;;;17.09;33.27;100428.06;10420305;28;20037;-84
2021/04/28 08:01:03;;;;;;;11.20;4.70;;;;;;;16.92;33.43;100418.19;10401486;28;20123;-84
2021/04/28 08:06:04;;;;;;;9.82;4.68;;;;;;;16.83;33.77;100418.69;10420112;28;20044;-83
2021/04/28 08:11:05;;;;;;;7.15;4.75;;;;;;;16.56;33.98;100377.75;10429020;28;20037;-84
2021/04/28 08:16:07;;;;;;;11.10;4.60;;;;;;;16.29;34.13;100411.19;10420003;28;20048;-83
2021/04/28 08:21:07;;;;;;;7.88;5.00;;;;;;;15.88;35.54;100387.53;10416755;28;20064;-84
2021/04/28 08:26:09;;;;;;;7.78;5.30;;;;;;;15.81;34.93;100387.59;10417318;28;20044;-84
2021/04/28 08:31:15;;;;;;;11.53;6.23;;;;;;;15.64;35.74;100422.78;10396617;28;20037;-85
2021/04/28 08:36:18;;;;;;;11.82;6.03;;;;;;;15.23;35.96;100399.00;10408476;28;20056;-85
2021/04/28 08:41:19;;;;;;;13.77;5.40;;;;;;;15.54;36.76;100401.84;10402029;28;20041;-83
2021/04/28 08:46:19;;;;;;;10.45;6.22;;;;;;;15.67;35.66;100393.19;10392381;28;20473;-85
2021/04/28 08:51:20;;;;;;;7.93;5.47;;;;;;;15.68;36.13;100351.13;10425244;28;20484;-84
2021/04/28 08:56:21;;;;;;;14.13;6.38;;;;;;;17.86;33.49;100388.91;10435676;28;20043;-83
2021/04/28 09:01:30;;;;;;;14.00;5.53;;;;;;;18.96;32.05;100397.97;10413510;28;20029;-86
2021/04/28 09:06:35;;;;;;;12.38;5.45;;;;;;;19.77;30.98;100405.31;10412860;28;20472;-83
2021/04/28 09:11:45;;;;;;;16.45;6.30;;;;;;;20.65;29.19;100367.56;10399214;28;20037;-85
2021/04/28 09:16:56;;;;;;;11.30;5.63;;;;;;;22.23;27.39;100378.72;10423516;28;20147;-85
2021/04/28 09:22:11;;;;;;;9.18;6.18;;;;;;;22.78;26.01;100378.94;10411902;28;20128;-84
2021/04/28 09:27:40;;;;;;;16.15;6.78;;;;;;;21.18;26.31;100391.00;10385846;28;20106;-83
2021/04/28 09:32:46;;;;;;;15.80;6.88;;;;;;;20.90;26.87;100333.00;10427051;28;20123;-83
2021/04/28 09:37:51;;;;;;;18.38;8.05;;;;;;;21.94;25.93;100374.25;10384351;28;20048;-84
2021/04/28 09:42:53;;;;;;;13.25;6.93;;;;;;;23.07;24.37;100366.81;10370997;28;20036;-81
2021/04/28 09:47:56;;;;;;;15.35;7.28;;;;;;;22.73;24.93;100371.28;10395586;28;20364;-82
2021/04/28 09:52:57;;;;;;;13.57;8.75;;;;;;;21.95;25.45;100337.25;10368740;28;20057;-83
2021/04/28 09:57:57;;;;;;;15.73;7.45;;;;;;;21.60;26.11;100324.78;10398710;28;20048;-84
2021/04/28 10:03:02;;;;;;;12.02;8.05;;;;;;;22.59;24.38;100333.28;10383431;28;20041;-83
2021/04/28 10:08:09;;;;;;;13.02;7.60;;;;;;;20.99;26.27;100363.34;10370998;28;20055;-82
2021/04/28 10:13:09;;;;;;;11.85;8.38;;;;;;;20.03;27.85;100361.53;10370989;28;20030;-81
2021/04/28 10:18:12;;;;;;;16.83;8.70;;;;;;;19.05;29.75;100378.16;10387176;28;20030;-83
2021/04/28 10:23:15;;;;;;;12.50;8.15;;;;;;;19.21;30.79;100348.03;10388321;28;20188;-83
2021/04/28 10:28:16;;;;;;;15.43;8.15;;;;;;;20.51;28.48;100284.81;10389883;28;20167;-83
2021/04/28 10:33:20;;;;;;;11.23;8.05;;;;;;;20.92;28.21;100363.56;10397224;28;20025;-81
2021/04/28 10:38:26;;;;;;;14.02;8.68;;;;;;;19.80;28.98;100305.75;10387889;28;20042;-82
2021/04/28 10:43:37;;;;;;;12.10;7.70;;;;;;;19.75;29.51;100352.88;10397807;28;20033;-80
2021/04/28 10:48:40;;;;;;;11.00;8.43;;;;;;;19.24;30.41;100341.69;10379864;28;20033;-82
2021/04/28 10:53:40;;;;;;;;;;;;;;;18.79;31.03;100350.63;10376997;28;22053;-83
2021/04/28 10:58:42;;;;;;;12.75;8.82;;;;;;;18.95;31.80;100342.38;10386563;28;19921;-83
2021/04/28 11:03:49;;;;;;;15.40;8.73;;;;;;;18.98;31.00;100311.44;10391598;28;20038;-81
2021/04/28 11:08:56;;;;;;;13.13;8.77;;;;;;;19.88;30.27;100327.50;10397615;28;20046;-81
2021/04/28 11:14:15;;;;;;;14.88;8.38;;;;;;;20.08;30.08;100314.34;10385972;28;20115;-81
2021/04/28 11:19:22;;;;;;;16.50;8.65;;;;;;;20.44;28.95;100255.63;10390141;28;20043;-83
2021/04/28 11:24:23;;;;;;;12.27;8.55;;;;;;;20.65;28.47;100274.19;10401943;28;20106;-83
2021/04/28 11:29:23;;;;;;;14.30;9.32;;;;;;;20.21;28.60;100246.53;10376369;28;20470;-83
2021/04/28 11:34:29;;;;;;;17.15;9.15;;;;;;;21.06;28.91;100302.63;10385668;28;20452;-80
2021/04/28 11:39:36;;;;;;;15.63;9.43;;;;;;;20.47;28.62;100172.38;10429870;28;20095;-81
2021/04/28 11:44:39;;;;;;;14.90;9.40;;;;;;;21.36;28.83;100286.72;10383388;28;20087;-82
2021/04/28 11:50:03;;;;;;;17.33;9.52;;;;;;;21.19;28.95;100277.09;10412906;28;20028;-83
2021/04/28 11:55:09;;;;;;;15.77;8.52;;;;;;;21.46;28.60;100269.09;10441778;28;20037;-83
2021/04/28 12:00:11;;;;;;;15.35;9.60;;;;;;;21.74;28.12;100283.00;10441432;28;20363;-83
2021/04/28 12:05:12;;;;;;;15.35;9.77;;;;;;;21.89;28.13;100289.50;10393897;28;21218;-82
2021/04/28 12:10:16;;;;;;;20.70;9.77;;;;;;;21.81;27.43;100259.97;10389898;28;20048;-86
2021/04/28 12:15:17;;;;;;;20.30;10.13;;;;;;;21.83;27.51;100290.56;10425638;28;20033;-81
2021/04/28 12:20:20;;;;;;;11.73;9.43;;;;;;;22.31;26.74;100269.84;10396126;28;20041;-87
2021/04/28 12:25:21;;;;;;;15.88;9.60;;;;;;;21.29;27.63;100231.97;10379760;28;20041;-84
2021/04/28 12:30:24;;;;;;;18.38;10.05;;;;;;;20.43;28.84;100237.59;10414041;28;20470;-83
2021/04/28 12:35:31;;;;;;;14.15;9.88;;;;;;;20.39;29.74;100204.00;10418541;28;20049;-82
2021/04/28 12:40:39;;;;;;;18.13;9.93;;;;;;;20.93;28.13;100227.75;10418747;28;20041;-82
2021/04/28 12:45:40;;;;;;;16.10;11.27;;;;;;;20.78;28.53;100215.69;10414892;28;20464;-89
2021/04/28 12:50:42;;;;;;;19.95;10.60;;;;;;;21.57;28.55;100276.19;10382949;28;20037;-89
2021/04/28 12:55:44;;;;;;;16.90;10.40;;;;;;;21.15;28.00;100152.78;10415579;28;20044;-86
2021/04/28 13:00:52;;;;;;;13.50;9.75;;;;;;;21.65;28.39;100258.19;10423714;28;20324;-84
2021/04/28 13:06:06;;;;;;;15.45;10.07;;;;;;;21.38;27.59;100269.75;10430183;28;20029;-85
2021/04/28 13:11:18;;;;;;;14.65;10.68;;;;;;;21.01;27.69;100163.06;10372859;28;20029;-83
2021/04/28 13:16:39;;;;;;;17.65;12.38;;;;;;;21.72;27.46;100263.44;10404345;28;20044;-86
2021/04/28 13:21:52;;;;;;;17.33;11.05;;;;;;;21.13;28.56;100232.16;10403530;28;20571;-87
2021/04/28 13:27:16;;;;;;;16.92;10.88;;;;;;;21.35;28.46;100252.16;10396266;28;20030;-87
2021/04/28 13:32:35;;;;;;;17.55;10.48;;;;;;;21.89;27.06;100248.22;10405914;28;20045;-83
2021/04/28 13:37:36;;;;;;;15.90;11.93;;;;;;;21.73;27.95;100237.47;10431559;28;20045;-78
2021/04/28 13:42:36;;;;;;;21.05;12.50;;;;;;;21.89;27.05;100228.97;10435619;28;20047;-79
2021/04/28 13:47:37;;;;;;;27.17;12.38;;;;;;;21.95;26.93;100215.41;10416460;28;20639;-79
2021/04/28 13:52:38;;;;;;;15.23;12.02;;;;;;;22.26;25.85;100190.59;10431943;28;20386;-82
2021/04/28 13:57:39;;;;;;;20.33;12.68;;;;;;;22.43;27.15;100188.31;10432323;28;20033;-81
2021/04/28 14:02:43;;;;;;;18.55;12.82;;;;;;;22.74;26.12;100199.25;10406109;28;20041;-79
2021/04/28 14:07:44;;;;;;;16.98;11.85;;;;;;;22.76;25.58;100172.00;10408846;28;20029;-75
2021/04/28 14:12:45;;;;;;;16.80;12.18;;;;;;;22.32;26.35;100183.28;10400550;28;20073;-75
2021/04/28 14:17:45;;;;;;;18.45;11.40;;;;;;;22.52;25.77;100179.31;10401112;28;20043;-76
2021/04/28 14:22:48;;;;;;;18.13;10.18;;;;;;;22.15;25.58;100140.69;10420000;28;20029;-79
2021/04/28 14:27:49;;;;;;;16.45;10.93;;;;;;;22.16;25.67;100147.72;10417965;28;20111;-77
2021/04/28 14:32:50;;;;;;;13.52;11.27;;;;;;;21.78;26.92;100157.13;10410345;28;20189;-77
2021/04/28 14:37:51;;;;;;;16.08;10.13;;;;;;;21.77;27.03;100161.06;10407540;28;20075;-77
2021/04/28 14:42:51;;;;;;;19.63;10.77;;;;;;;21.79;25.86;100125.63;10394322;28;20068;-78
2021/04/28 14:47:51;;;;;;;19.58;11.38;;;;;;;22.17;25.94;100160.25;10400477;28;20515;-78
2021/04/28 14:52:52;;;;;;;14.43;10.98;;;;;;;22.18;26.13;100150.81;10411407;28;20048;-78
2021/04/28 14:57:53;;;;;;;23.02;11.73;;;;;;;21.76;27.79;100154.03;10344050;28;20416;-77
2021/04/28 15:02:56;;;;;;;13.18;10.60;;;;;;;21.78;28.37;100135.09;10348949;28;20052;-76
2021/04/28 15:07:57;;;;;;;13.55;11.23;;;;;;;21.82;27.76;100138.47;10359184;28;20037;-77
2021/04/28 15:12:58;;;;;;;16.95;10.98;;;;;;;21.69;28.15;100143.31;10369156;28;20049;-78
2021/04/28 15:17:58;;;;;;;22.13;11.35;;;;;;;21.47;27.79;100127.66;10371137;28;20045;-78
2021/04/28 15:22:59;;;;;;;15.95;11.98;;;;;;;21.27;28.42;100151.94;10336144;28;20049;-77
2021/04/28 15:27:59;;;;;;;14.73;11.52;;;;;;;20.62;28.95;100137.75;10354455;28;20736;-76
2021/04/28 15:33:00;;;;;;;18.23;11.93;;;;;;;20.50;29.83;100130.31;10369820;28;20714;-76
2021/04/28 15:38:02;;;;;;;16.38;10.75;;;;;;;20.08;29.87;100045.47;10357317;28;20049;-77
2021/04/28 15:43:03;;;;;;;18.45;11.07;;;;;;;20.60;30.06;100129.22;10340922;28;20057;-76
2021/04/28 15:48:05;;;;;;;18.30;12.77;;;;;;;19.77;31.11;100065.28;10371020;28;20037;-78
2021/04/28 15:53:06;;;;;;;15.55;10.63;;;;;;;20.78;28.44;100128.56;10353203;28;20128;-80
2021/04/28 15:58:08;;;;;;;19.67;11.60;;;;;;;21.10;27.62;100083.44;10336113;28;20052;-78
2021/04/28 16:03:09;;;;;;;13.45;9.48;;;;;;;21.32;28.56;100137.63;10342703;28;20134;-87
2021/04/28 16:08:10;;;;;;;12.40;9.93;;;;;;;21.18;28.77;100121.66;10363515;28;20218;-84
2021/04/28 16:13:11;;;;;;;14.63;10.77;;;;;;;21.24;27.67;100130.88;10346805;28;20950;-84
2021/04/28 16:18:12;;;;;;;15.60;10.52;;;;;;;20.81;28.43;100088.47;10351197;28;20033;-82
2021/04/28 16:23:13;;;;;;;16.73;10.68;;;;;;;20.72;28.82;100118.59;10338820;28;20053;-83
2021/04/28 16:28:34;;;;;;;17.88;10.02;;;;;;;19.94;29.21;100002.06;10324818;28;20612;-82
2021/04/28 16:33:38;;;;;;;12.05;9.50;;;;;;;20.53;29.70;100129.44;10327213;28;20396;-82
2021/04/28 16:38:40;;;;;;;13.88;10.40;;;;;;;19.40;29.94;99979.91;10284927;28;20061;-84
2021/04/28 16:43:45;;;;;;;16.90;10.25;;;;;;;19.58;30.03;100041.59;10300399;28;20038;-83
2021/04/28 16:48:49;;;;;;;13.32;9.70;;;;;;;19.15;30.27;99999.09;10306542;28;20112;-85
2021/04/28 16:59:06;;;;;;;13.90;9.02;;;;;;;19.63;31.02;100109.56;10297490;28;20804;-82
2021/04/28 17:04:10;;;;;;;13.27;9.60;;;;;;;19.81;30.95;100112.56;10302051;28;20111;-83
2021/04/28 17:09:38;;;;;;;14.15;8.77;;;;;;;19.10;30.48;99980.47;10283039;28;20053;-83
2021/04/28 17:14:46;;;;;;;13.40;9.18;;;;;;;19.27;29.93;100072.31;10293421;28;20056;-81
2021/04/28 17:19:59;;;;;;;16.25;9.52;;;;;;;19.08;30.95;100119.84;10259459;28;20052;-84
2021/04/28 17:25:00;;;;;;;13.00;7.78;;;;;;;18.89;31.39;100086.72;10272268;28;20142;-84
2021/04/28 17:30:07;;;;;;;14.65;8.88;;;;;;;18.84;31.07;100111.88;10256294;28;20084;-83
2021/04/28 17:35:13;;;;;;;17.27;9.10;;;;;;;18.10;31.81;100023.09;10306065;28;20052;-87
2021/04/28 17:40:19;;;;;;;18.67;9.40;;;;;;;17.54;32.35;99995.97;10309577;28;20131;-82
2021/04/28 17:45:37;;;;;;;16.05;8.90;;;;;;;17.47;32.72;100009.81;10280670;28;20053;-85
2021/04/28 17:51:05;;;;;;;16.63;8.10;;;;;;;17.63;33.88;100100.00;10314895;28;20047;-82
2021/04/28 17:56:17;;;;;;;12.80;7.93;;;;;;;17.44;34.31;100117.97;10327498;28;20051;-84
2021/04/28 18:01:43;;;;;;;16.40;8.05;;;;;;;17.12;35.79;100115.94;10348983;28;21120;-86
2021/04/28 18:06:50;;;;;;;14.52;8.15;;;;;;;16.21;35.25;99984.34;10326287;28;20900;-82
2021/04/28 18:11:58;;;;;;;15.75;8.07;;;;;;;15.88;35.67;99970.53;10312422;28;20048;-81
2021/04/28 18:16:59;;;;;;;18.98;9.48;;;;;;;16.51;37.31;100105.38;10311123;28;20180;-85
2021/04/28 18:22:03;;;;;;;13.13;8.45;;;;;;;16.06;38.20;100074.59;10308914;28;20052;-84
2021/04/28 18:27:09;;;;;;;14.07;8.50;;;;;;;16.15;39.12;100122.34;10300614;28;20033;-85
2021/04/28 18:32:13;;;;;;;15.57;8.52;;;;;;;16.04;38.86;100112.38;10307132;28;20049;-84
2021/04/28 18:47:55;;;;;;;17.33;9.20;;;;;;;15.29;41.56;100080.00;10259842;28;20161;-82
2021/04/28 18:52:56;;;;;;;18.48;9.00;;;;;;;15.49;41.42;100127.19;10263421;28;20066;-87
2021/04/28 18:57:56;;;;;;;15.73;9.38;;;;;;;15.27;42.57;100120.47;10280027;28;20735;-83
2021/04/28 19:02:58;;;;;;;12.07;8.63;;;;;;;15.08;42.71;100103.59;10266851;28;20369;-81
2021/04/28 19:07:59;;;;;;;12.90;8.93;;;;;;;15.20;42.32;100121.34;10263734;28;20051;-84
2021/04/28 19:12:59;;;;;;;13.98;8.52;;;;;;;15.07;43.06;100107.47;10218158;28;20064;-84
2021/04/28 19:18:05;;;;;;;13.65;9.05;;;;;;;14.91;43.85;100099.13;10266072;28;20143;-84
2021/04/28 19:23:07;;;;;;;14.85;8.45;;;;;;;14.57;44.57;100075.41;10265034;28;20057;-82
2021/04/28 19:28:08;;;;;;;11.52;8.30;;;;;;;14.64;44.71;100083.47;10249585;28;20061;-83
2021/04/28 19:33:11;;;;;;;13.80;8.75;;;;;;;14.86;44.95;100129.50;10273962;28;20631;-84
2021/04/28 19:38:21;;;;;;;13.77;8.23;;;;;;;13.84;46.35;99992.97;10290657;28;20034;-85
2021/04/28 19:43:23;;;;;;;11.65;7.90;;;;;;;14.62;47.34;100142.94;10276764;28;20425;-82
2021/04/28 19:48:25;;;;;;;12.82;8.38;;;;;;;14.66;46.46;100151.84;10270205;28;20909;-83
2021/04/28 19:53:28;;;;;;;10.82;7.57;;;;;;;14.72;47.47;100169.28;10278213;28;20092;-83
2021/04/28 19:58:29;;;;;;;16.45;7.60;;;;;;;14.69;47.70;100147.56;10261722;28;20721;-80
2021/04/28 20:03:32;;;;;;;15.82;8.57;;;;;;;14.76;48.04;100142.81;10289050;28;20153;-80
2021/04/28 20:08:37;;;;;;;19.77;8.38;;;;;;;14.58;48.64;100147.69;10294159;28;20037;-81
2021/04/28 20:13:41;;;;;;;12.07;8.57;;;;;;;14.01;50.29;100088.31;10314995;28;20054;-81
2021/04/28 20:18:44;;;;;;;15.25;10.20;;;;;;;14.16;53.86;100133.25;10302589;28;20038;-81
2021/04/28 20:23:50;;;;;;;18.25;8.90;;;;;;;13.67;54.65;100064.50;10289681;28;20044;-81
2021/04/28 20:28:53;;;;;;;17.27;9.45;;;;;;;14.10;53.71;100122.00;10288282;28;22431;-80
2021/04/28 20:33:55;;;;;;;12.55;9.23;;;;;;;13.50;54.52;100077.81;10290694;28;20379;-83
2021/04/28 20:39:01;;;;;;;14.23;8.77;;;;;;;13.49;52.70;100087.09;10287986;28;20508;-85
2021/04/28 20:44:06;;;;;;;16.70;9.50;;;;;;;13.44;55.14;100067.75;10286617;28;20085;-85
2021/04/28 20:49:09;;;;;;;16.63;10.27;;;;;;;13.75;57.77;100114.88;10293314;28;20418;-84
2021/04/28 20:54:09;;;;;;;;;;;;;;;13.67;57.36;100113.41;10294318;28;20243;-86
2021/04/28 20:59:10;;;;;;;16.95;9.82;;;;;;;13.67;56.29;100110.69;10279429;28;19968;-86
2021/04/28 21:04:10;;;;;;;18.42;10.95;;;;;;;13.52;59.13;100097.19;10295391;28;20049;-82
2021/04/28 21:09:13;;;;;;;14.55;10.90;;;;;;;13.59;60.52;100106.44;10299134;28;20061;-86
2021/04/28 21:14:14;;;;;;;15.43;10.90;;;;;;;13.27;62.05;100081.03;10299958;28;20055;-89
2021/04/28 21:19:15;;;;;;;17.73;10.18;;;;;;;13.26;62.36;100127.53;10304143;28;20038;-88
2021/04/28 21:24:15;;;;;;;15.63;10.45;;;;;;;13.04;61.38;100100.50;10297666;28;20145;-85
2021/04/28 21:29:16;;;;;;;15.93;9.10;;;;;;;13.01;60.32;100133.84;10312784;28;20093;-84
2021/04/28 21:34:19;;;;;;;16.30;9.52;;;;;;;13.20;60.99;100183.41;10348880;28;20037;-85
2021/04/28 21:39:20;;;;;;;14.35;9.60;;;;;;;13.22;61.74;100202.78;10346160;28;20041;-85
2021/04/28 21:44:21;;;;;;;14.32;8.88;;;;;;;13.17;58.94;100222.97;10338491;28;20038;-88
2021/04/28 21:49:22;;;;;;;13.10;8.82;;;;;;;12.48;58.06;100145.56;10354524;28;20034;-85
2021/04/28 21:54:59;;;;;;;15.77;9.82;;;;;;;12.47;57.06;100138.59;10343928;28;20057;-85
2021/04/28 22:00:50;;;;;;;;;;;;;;;;;;;;;
2021/04/28 22:06:26;;;;;;;18.77;10.23;;;;;;;11.77;63.46;100044.16;10301989;28;20194;-85
2021/04/28 22:11:57;;;;;;;17.20;11.90;;;;;;;12.73;69.85;100215.28;10302698;28;20162;-84
2021/04/28 22:17:44;;;;;;;22.05;13.20;;;;;;;12.49;71.93;100144.41;10289153;28;20073;-87
2021/04/28 22:23:05;;;;;;;22.45;13.82;;;;;;;12.46;76.11;100164.16;10249484;28;20043;-84
2021/04/28 22:29:00;;;;;;;20.67;13.43;;;;;;;11.63;72.47;100006.25;10324055;28;20054;-85
2021/04/28 22:40:20;;;;;;;19.10;13.05;;;;;;;11.69;77.01;100107.59;10208508;28;20068;-85
2021/04/28 22:45:40;;;;;;;;;;;;;;;;;;;;;
2021/04/28 22:51:02;;;;;;;17.08;14.15;;;;;;;11.07;84.40;100078.00;10304664;28;20042;-85
2021/04/28 23:08:24;;;;;;;;;;;;;;;;;;;;;
2021/04/28 23:14:03;;;;;;;21.20;13.73;;;;;;;10.99;80.84;100034.72;10305007;28;20052;-84
2021/04/28 23:19:06;;;;;;;22.77;15.35;;;;;;;11.40;83.12;100118.31;10328975;28;20517;-85
2021/04/28 23:24:07;;;;;;;22.27;14.48;;;;;;;11.28;83.80;100124.06;10325544;28;20065;-85
2021/04/28 23:29:10;;;;;;;25.45;15.45;;;;;;;11.18;84.81;100138.34;10348412;28;20545;-84
2021/04/28 23:34:11;;;;;;;19.05;15.23;;;;;;;10.07;86.60;100010.69;10364460;28;20078;-85
2021/04/28 23:39:11;;;;;;;22.15;14.75;;;;;;;11.07;86.41;100194.31;10337749;28;20038;-84
2021/04/28 23:44:14;;;;;;;19.30;13.93;;;;;;;10.85;86.02;100229.34;10335196;28;20057;-85
2021/04/28 23:49:18;;;;;;;20.70;14.85;;;;;;;10.39;84.80;100224.31;10317355;28;20164;-85
2021/04/28 23:54:19;;;;;;;23.15;16.67;;;;;;;10.52;86.87;100260.75;10308335;28;20464;-84